createdAt,value
2019-03-29T00:01:27.049Z,7.70
2019-03-29T00:03:58.242Z,8.33
2019-03-29T00:06:29.415Z,9.93
2019-03-29T00:09:01.936Z,10.80
2019-03-29T00:11:35.033Z,11.43
2019-03-29T00:14:06.723Z,10.63
2019-03-29T00:16:37.785Z,10.23
2019-03-29T00:19:09.016Z,10.33
2019-03-29T00:21:40.655Z,9.87
2019-03-29T00:24:12.236Z,9.83
2019-03-29T00:26:43.470Z,9.77
2019-03-29T00:29:16.173Z,10.93
2019-03-29T00:31:47.247Z,10.70
2019-03-29T00:34:18.631Z,11.47
2019-03-29T00:36:50.275Z,12.37
2019-03-29T00:39:21.419Z,11.97
2019-03-29T00:41:52.638Z,12.80
2019-03-29T00:44:23.923Z,11.87
2019-03-29T00:46:55.115Z,12.23
2019-03-29T00:49:26.367Z,10.20
2019-03-29T00:51:57.592Z,8.50
2019-03-29T00:54:28.754Z,10.83
2019-03-29T00:57:00.009Z,11.63
2019-03-29T00:59:31.220Z,10.23
2019-03-29T01:02:02.453Z,8.70
2019-03-29T01:04:34.032Z,10.17
2019-03-29T01:07:05.303Z,8.37
2019-03-29T01:09:36.435Z,8.43
2019-03-29T01:12:07.599Z,8.17
2019-03-29T01:14:38.845Z,7.47
2019-03-29T01:17:10.012Z,7.87
2019-03-29T01:19:41.104Z,7.37
2019-03-29T01:22:13.266Z,6.50
2019-03-29T01:24:44.487Z,7.03
2019-03-29T01:27:15.768Z,7.20
2019-03-29T01:29:47.014Z,6.57
2019-03-29T01:32:18.278Z,7.70
2019-03-29T01:34:49.530Z,6.87
2019-03-29T01:37:20.729Z,7.67
2019-03-29T01:39:51.888Z,7.00
2019-03-29T01:42:22.955Z,7.00
2019-03-29T01:44:54.131Z,8.33
2019-03-29T01:47:25.191Z,8.10
2019-03-29T01:49:56.426Z,7.57
2019-03-29T01:52:30.143Z,8.00
2019-03-29T01:55:01.231Z,8.30
2019-03-29T01:57:32.910Z,7.90
2019-03-29T02:00:09.064Z,7.80
2019-03-29T02:02:40.866Z,7.07
2019-03-29T02:05:12.115Z,8.13
2019-03-29T02:07:43.415Z,7.80
2019-03-29T02:10:15.094Z,9.00
2019-03-29T02:12:46.152Z,9.27
2019-03-29T02:15:17.361Z,7.40
2019-03-29T02:17:48.704Z,8.17
2019-03-29T02:20:19.977Z,8.43
2019-03-29T02:22:51.177Z,8.73
2019-03-29T02:25:22.443Z,8.57
2019-03-29T02:27:53.651Z,8.03
2019-03-29T02:30:25.244Z,8.53
2019-03-29T02:32:56.440Z,7.93
2019-03-29T02:35:27.619Z,8.60
2019-03-29T02:37:58.792Z,8.90
2019-03-29T02:40:30.134Z,7.80
2019-03-29T02:43:01.806Z,9.07
2019-03-29T02:45:33.149Z,8.43
2019-03-29T02:48:04.197Z,8.73
2019-03-29T02:50:36.664Z,9.47
2019-03-29T02:53:08.055Z,10.77
2019-03-29T02:55:39.373Z,8.83
2019-03-29T02:58:10.589Z,10.27
2019-03-29T03:00:42.180Z,11.30
2019-03-29T03:03:13.363Z,11.30
2019-03-29T03:05:44.569Z,10.00
2019-03-29T03:08:16.146Z,9.73
2019-03-29T03:10:47.670Z,8.23
2019-03-29T03:13:18.753Z,9.47
2019-03-29T03:15:49.840Z,9.47
2019-03-29T03:18:21.083Z,9.10
2019-03-29T03:20:52.370Z,9.37
2019-03-29T03:23:24.506Z,10.73
2019-03-29T03:25:55.789Z,9.10
2019-03-29T03:28:27.396Z,9.97
2019-03-29T03:30:59.174Z,8.57
2019-03-29T03:33:30.382Z,9.80
2019-03-29T03:36:01.919Z,10.80
2019-03-29T03:38:33.095Z,10.20
2019-03-29T03:41:05.003Z,8.60
2019-03-29T03:43:36.322Z,10.20
2019-03-29T03:46:07.601Z,9.63
2019-03-29T03:48:39.019Z,7.80
2019-03-29T03:51:10.561Z,8.20
2019-03-29T03:53:42.590Z,7.50
2019-03-29T03:56:16.217Z,7.13
2019-03-29T03:58:49.215Z,6.70
2019-03-29T04:01:20.264Z,7.00
2019-03-29T04:03:51.826Z,7.13
2019-03-29T04:06:23.031Z,8.07
2019-03-29T04:08:54.317Z,7.37
2019-03-29T04:11:25.466Z,7.67
2019-03-29T04:13:56.774Z,6.97
2019-03-29T04:16:27.949Z,7.37
2019-03-29T04:18:59.183Z,7.33
2019-03-29T04:21:30.372Z,8.23
2019-03-29T04:24:01.599Z,7.73
2019-03-29T04:26:32.852Z,8.17
2019-03-29T04:29:05.364Z,9.83
2019-03-29T04:31:36.717Z,8.33
2019-03-29T04:34:07.819Z,9.33
2019-03-29T04:36:39.042Z,9.83
2019-03-29T04:39:10.232Z,8.47
2019-03-29T04:41:41.361Z,10.03
2019-03-29T04:44:12.564Z,10.33
2019-03-29T04:46:44.889Z,10.37
2019-03-29T04:49:16.169Z,10.10
2019-03-29T04:51:47.288Z,9.50
2019-03-29T04:54:18.362Z,11.80
2019-03-29T04:56:49.934Z,9.93
2019-03-29T04:59:21.043Z,10.30
2019-03-29T05:01:53.143Z,10.80
2019-03-29T05:04:24.429Z,10.87
2019-03-29T05:06:55.680Z,11.27
2019-03-29T05:09:26.906Z,10.07
2019-03-29T05:11:58.144Z,10.60
2019-03-29T05:14:29.385Z,10.47
2019-03-29T05:17:00.487Z,9.90
2019-03-29T05:19:31.722Z,9.60
2019-03-29T05:22:02.954Z,12.27
2019-03-29T05:24:34.489Z,10.17
2019-03-29T05:27:05.709Z,10.97
2019-03-29T05:29:36.955Z,10.17
2019-03-29T05:32:08.131Z,11.83
2019-03-29T05:34:39.429Z,10.43
2019-03-29T05:37:10.635Z,9.43
2019-03-29T05:39:41.922Z,10.93
2019-03-29T05:42:13.206Z,11.43
2019-03-29T05:44:44.398Z,10.80
2019-03-29T05:47:19.196Z,10.03
2019-03-29T05:49:50.524Z,10.77
2019-03-29T05:52:21.699Z,9.23
2019-03-29T05:54:53.246Z,9.43
2019-03-29T05:57:24.433Z,9.63
2019-03-29T05:59:55.771Z,9.57
2019-03-29T06:02:26.839Z,8.87
2019-03-29T06:04:58.243Z,8.97
2019-03-29T06:07:30.718Z,7.40
2019-03-29T06:10:04.319Z,7.47
2019-03-29T06:12:36.349Z,7.83
2019-03-29T06:15:08.870Z,7.60
2019-03-29T06:17:48.595Z,7.62
2019-03-29T06:20:15.761Z,8.15
2019-03-29T06:22:48.459Z,7.80
2019-03-29T06:25:20.115Z,9.63
2019-03-29T06:27:51.787Z,8.83
2019-03-29T06:30:34.880Z,9.58
2019-03-29T06:33:08.245Z,8.75
2019-03-29T06:35:43.382Z,10.30
2019-03-29T06:38:17.110Z,10.32
2019-03-29T06:41:02.198Z,9.65
2019-03-29T06:43:23.245Z,9.60
2019-03-29T06:45:58.143Z,8.98
2019-03-29T06:48:30.261Z,9.25
2019-03-29T06:51:05.304Z,8.95
2019-03-29T06:53:41.510Z,9.55
2019-03-29T06:56:13.767Z,9.25
2019-03-29T06:58:45.027Z,9.25
2019-03-29T07:01:16.268Z,9.43
2019-03-29T07:03:47.453Z,9.88
2019-03-29T07:06:18.954Z,8.90
2019-03-29T07:08:50.165Z,8.65
2019-03-29T07:11:21.345Z,9.20
2019-03-29T07:13:57.644Z,9.48
2019-03-29T07:16:25.339Z,8.93
2019-03-29T07:18:56.535Z,8.75
2019-03-29T07:21:27.786Z,8.35
2019-03-29T07:23:58.981Z,7.85
2019-03-29T07:26:30.179Z,8.65
2019-03-29T07:29:01.365Z,7.75
2019-03-29T07:31:32.684Z,7.83
2019-03-29T07:34:03.965Z,7.67
2019-03-29T07:36:35.138Z,8.13
2019-03-29T07:39:07.333Z,7.28
2019-03-29T07:41:38.551Z,8.68
2019-03-29T07:44:09.831Z,8.33
2019-03-29T07:46:40.961Z,7.80
2019-03-29T07:49:12.223Z,7.15
2019-03-29T07:51:43.539Z,7.25
2019-03-29T07:54:15.186Z,6.50
2019-03-29T07:56:46.422Z,6.65
2019-03-29T07:59:17.622Z,6.85
2019-03-29T08:01:48.859Z,6.50
2019-03-29T08:04:21.628Z,5.50
2019-03-29T08:06:53.171Z,6.65
2019-03-29T08:09:24.447Z,6.75
2019-03-29T08:11:55.750Z,6.17
2019-03-29T08:14:26.855Z,5.25
2019-03-29T08:16:57.914Z,5.15
2019-03-29T08:19:29.070Z,4.70
2019-03-29T08:22:00.214Z,4.22
2019-03-29T08:24:31.968Z,4.22
2019-03-29T08:27:03.126Z,4.67
2019-03-29T08:29:34.447Z,4.12
2019-03-29T08:32:05.670Z,4.95
2019-03-29T08:34:36.882Z,4.00
2019-03-29T08:37:08.111Z,4.03
2019-03-29T08:39:39.197Z,4.45
2019-03-29T08:42:10.500Z,4.47
2019-03-29T08:44:41.785Z,4.65
2019-03-29T08:47:12.998Z,4.22
2019-03-29T08:49:44.179Z,3.77
2019-03-29T08:52:15.465Z,3.60
2019-03-29T08:54:46.967Z,2.67
2019-03-29T08:57:18.578Z,3.52
2019-03-29T08:59:49.848Z,3.42
2019-03-29T09:02:21.207Z,2.92
2019-03-29T09:04:52.829Z,2.05
2019-03-29T09:07:24.094Z,2.05
2019-03-29T09:09:55.349Z,2.22
2019-03-29T09:12:26.551Z,2.12
2019-03-29T09:14:57.775Z,1.62
2019-03-29T09:17:28.866Z,2.37
2019-03-29T09:20:00.001Z,2.55
2019-03-29T09:22:31.275Z,2.00
2019-03-29T09:25:02.435Z,2.25
2019-03-29T09:27:33.549Z,2.45
2019-03-29T09:30:05.350Z,2.45
2019-03-29T09:32:36.812Z,2.55
2019-03-29T09:35:08.395Z,2.65
2019-03-29T09:37:39.920Z,2.60
2019-03-29T09:40:14.002Z,3.25
2019-03-29T09:42:45.492Z,3.22
2019-03-29T09:45:16.740Z,2.75
2019-03-29T09:47:47.995Z,3.15
2019-03-29T09:50:22.486Z,2.80
2019-03-29T09:52:52.238Z,2.30
2019-03-29T09:55:24.126Z,2.55
2019-03-29T09:57:55.285Z,2.67
2019-03-29T10:00:26.503Z,3.12
2019-03-29T10:02:57.589Z,3.17
2019-03-29T10:05:31.325Z,2.72
2019-03-29T10:08:01.817Z,2.98
2019-03-29T10:10:34.747Z,2.87
2019-03-29T10:13:06.148Z,3.12
2019-03-29T10:15:40.489Z,3.33
2019-03-29T10:18:14.598Z,3.12
2019-03-29T10:20:45.717Z,3.10
2019-03-29T10:23:16.752Z,2.70
2019-03-29T10:25:47.876Z,3.25
2019-03-29T10:28:19.133Z,2.92
2019-03-29T10:30:50.232Z,3.50
2019-03-29T10:33:21.882Z,3.27
2019-03-29T10:35:53.246Z,3.47
2019-03-29T10:38:24.494Z,2.75
2019-03-29T10:40:55.718Z,3.72
2019-03-29T10:43:27.021Z,3.17
2019-03-29T10:45:58.284Z,3.35
2019-03-29T10:48:29.579Z,2.98
2019-03-29T10:51:01.103Z,3.10
2019-03-29T10:53:32.575Z,3.33
2019-03-29T10:56:04.753Z,3.37
2019-03-29T10:58:35.920Z,3.92
2019-03-29T11:01:07.281Z,3.52
2019-03-29T11:03:38.379Z,3.90
2019-03-29T11:06:09.639Z,3.58
2019-03-29T11:08:43.465Z,3.77
2019-03-29T11:11:13.711Z,6.50
2019-03-29T11:13:45.020Z,3.52
2019-03-29T11:16:16.260Z,4.00
2019-03-29T11:18:47.546Z,3.95
2019-03-29T11:21:19.407Z,4.33
2019-03-29T11:23:50.616Z,3.52
2019-03-29T11:26:21.817Z,3.37
2019-03-29T11:28:53.109Z,3.90
2019-03-29T11:31:25.583Z,4.10
2019-03-29T11:33:57.031Z,4.33
2019-03-29T11:36:28.535Z,3.65
2019-03-29T11:38:59.810Z,4.03
2019-03-29T11:41:30.992Z,4.10
2019-03-29T11:44:02.385Z,4.22
2019-03-29T11:46:33.637Z,4.28
2019-03-29T11:49:04.982Z,4.87
2019-03-29T11:51:36.713Z,4.03
2019-03-29T11:54:08.037Z,3.62
2019-03-29T11:56:39.223Z,3.35
2019-03-29T11:59:10.490Z,3.37
2019-03-29T12:01:41.631Z,4.05
2019-03-29T12:04:12.918Z,4.22
2019-03-29T12:06:44.270Z,4.10
2019-03-29T12:09:15.444Z,3.33
2019-03-29T12:11:46.817Z,4.30
2019-03-29T12:14:17.909Z,3.40
2019-03-29T12:16:49.197Z,4.12
2019-03-29T12:19:20.436Z,3.15
2019-03-29T12:21:53.159Z,3.75
2019-03-29T12:24:24.335Z,4.15
2019-03-29T12:26:55.538Z,3.55
2019-03-29T12:29:26.838Z,4.53
2019-03-29T12:31:58.068Z,4.58
2019-03-29T12:34:29.337Z,4.20
2019-03-29T12:37:00.535Z,4.47
2019-03-29T12:39:31.772Z,3.72
2019-03-29T12:42:13.975Z,4.15
2019-03-29T12:44:45.340Z,4.20
2019-03-29T12:47:16.432Z,4.22
2019-03-29T12:49:47.701Z,3.50
2019-03-29T12:52:19.104Z,4.55
2019-03-29T12:54:50.525Z,3.92
2019-03-29T12:57:21.959Z,4.87
2019-03-29T12:59:53.344Z,4.37
2019-03-29T13:02:24.674Z,4.05
2019-03-29T13:04:56.051Z,4.58
2019-03-29T13:07:27.347Z,4.53
2019-03-29T13:09:58.642Z,3.95
2019-03-29T13:12:30.209Z,4.25
2019-03-29T13:15:01.427Z,3.77
2019-03-29T13:17:32.623Z,3.33
2019-03-29T13:20:03.868Z,4.00
2019-03-29T13:22:36.046Z,4.37
2019-03-29T13:25:07.827Z,4.42
2019-03-29T13:27:40.207Z,4.97
2019-03-29T13:30:12.353Z,4.60
2019-03-29T13:32:43.751Z,3.97
2019-03-29T13:35:14.875Z,4.33
2019-03-29T13:37:47.097Z,4.00
2019-03-29T13:40:21.071Z,4.20
2019-03-29T13:42:52.354Z,4.87
2019-03-29T13:45:23.609Z,5.17
2019-03-29T13:47:54.800Z,4.30
2019-03-29T13:50:25.995Z,3.95
2019-03-29T13:52:57.194Z,4.72
2019-03-29T13:55:28.412Z,4.53
2019-03-29T13:57:59.639Z,4.50
2019-03-29T14:00:30.997Z,4.70
2019-03-29T14:03:02.047Z,4.75
2019-03-29T14:05:33.261Z,4.35
2019-03-29T14:08:04.445Z,4.40
2019-03-29T14:10:35.669Z,5.10
2019-03-29T14:13:07.175Z,4.03
2019-03-29T14:15:38.318Z,4.90
2019-03-29T14:18:09.603Z,4.17
2019-03-29T14:20:40.918Z,3.80
2019-03-29T14:23:12.201Z,4.10
2019-03-29T14:25:43.479Z,4.70
2019-03-29T14:28:14.666Z,3.50
2019-03-29T14:30:45.907Z,4.37
2019-03-29T14:33:17.206Z,4.57
2019-03-29T14:35:48.403Z,4.05
2019-03-29T14:38:19.521Z,4.67
2019-03-29T14:40:51.011Z,4.08
2019-03-29T14:43:22.234Z,3.75
2019-03-29T14:45:53.647Z,4.40
2019-03-29T14:48:24.884Z,5.03
2019-03-29T14:50:56.103Z,6.85
2019-03-29T14:53:27.287Z,3.63
2019-03-29T14:55:58.687Z,3.52
2019-03-29T14:58:30.954Z,4.23
2019-03-29T15:01:02.274Z,5.47
2019-03-29T15:03:33.855Z,4.60
2019-03-29T15:06:05.049Z,4.20
2019-03-29T15:08:36.356Z,4.27
2019-03-29T15:11:21.274Z,3.60
2019-03-29T15:13:41.759Z,4.50
2019-03-29T15:16:12.960Z,4.63
2019-03-29T15:18:45.083Z,4.27
2019-03-29T15:21:16.255Z,4.03
2019-03-29T15:23:47.730Z,5.00
2019-03-29T15:26:18.891Z,5.27
2019-03-29T15:28:50.099Z,4.17
2019-03-29T15:31:21.673Z,5.03
2019-03-29T15:33:55.451Z,4.67
2019-03-29T15:36:25.854Z,4.50
2019-03-29T15:38:57.258Z,4.50
2019-03-29T15:41:29.451Z,4.10
2019-03-29T15:44:00.827Z,4.37
2019-03-29T15:46:32.299Z,4.50
2019-03-29T15:49:03.694Z,4.53
2019-03-29T15:51:34.870Z,4.40
2019-03-29T15:54:06.324Z,4.17
2019-03-29T15:56:37.673Z,4.57
2019-03-29T15:59:09.145Z,4.03
2019-03-29T16:01:40.615Z,3.33
2019-03-29T16:04:15.303Z,3.97
2019-03-29T16:06:47.153Z,4.43
2019-03-29T16:09:18.383Z,5.17
2019-03-29T16:11:49.667Z,4.10
2019-03-29T16:14:20.854Z,4.57
2019-03-29T16:16:52.115Z,5.40
2019-03-29T16:19:23.289Z,4.67
2019-03-29T16:21:54.454Z,3.67
2019-03-29T16:24:25.536Z,5.07
2019-03-29T16:26:56.637Z,4.77
2019-03-29T16:29:28.876Z,4.33
2019-03-29T16:32:00.026Z,4.87
2019-03-29T16:34:31.153Z,4.60
2019-03-29T16:37:02.247Z,4.20
2019-03-29T16:39:33.442Z,3.70
2019-03-29T16:42:04.698Z,4.57
2019-03-29T16:44:36.352Z,4.17
2019-03-29T16:47:07.534Z,7.97
2019-03-29T16:49:38.647Z,4.07
2019-03-29T16:52:09.906Z,4.47
2019-03-29T16:54:41.129Z,4.20
2019-03-29T16:57:12.303Z,3.67
2019-03-29T16:59:43.512Z,4.30
2019-03-29T17:02:14.835Z,4.90
2019-03-29T17:04:45.928Z,4.47
2019-03-29T17:07:17.034Z,4.47
2019-03-29T17:09:48.313Z,4.00
2019-03-29T17:12:19.739Z,3.87
2019-03-29T17:14:51.007Z,4.20
2019-03-29T17:17:22.642Z,3.60
2019-03-29T17:19:53.804Z,4.43
2019-03-29T17:22:25.359Z,4.30
2019-03-29T17:24:57.471Z,4.27
2019-03-29T17:27:28.813Z,4.23
2019-03-29T17:30:00.436Z,5.37
2019-03-29T17:32:32.623Z,4.33
2019-03-29T17:35:03.867Z,5.60
2019-03-29T17:37:35.137Z,5.80
2019-03-29T17:40:07.733Z,3.73
2019-03-29T17:42:39.431Z,5.27
2019-03-29T17:45:10.687Z,5.03
2019-03-29T17:47:41.926Z,5.37
2019-03-29T17:50:13.121Z,4.23
2019-03-29T17:52:45.921Z,5.27
2019-03-29T17:55:17.167Z,4.50
2019-03-29T17:57:48.742Z,5.23
2019-03-29T18:00:21.733Z,4.13
2019-03-29T18:02:52.840Z,4.63
2019-03-29T18:05:24.128Z,5.07
2019-03-29T18:07:55.638Z,5.20
2019-03-29T18:10:26.815Z,4.63
2019-03-29T18:12:58.170Z,4.60
2019-03-29T18:15:29.538Z,6.00
2019-03-29T18:18:02.170Z,4.60
2019-03-29T18:20:33.427Z,5.13
2019-03-29T18:23:05.501Z,5.43
2019-03-29T18:25:36.811Z,5.27
2019-03-29T18:28:07.964Z,4.63
2019-03-29T18:30:44.132Z,5.23
2019-03-29T18:33:15.391Z,5.97
2019-03-29T18:35:46.669Z,5.33
2019-03-29T18:38:17.851Z,5.83
2019-03-29T18:40:49.139Z,5.23
2019-03-29T18:43:21.023Z,5.60
2019-03-29T18:45:52.354Z,5.20
2019-03-29T18:48:23.897Z,4.93
2019-03-29T18:50:55.161Z,5.13
2019-03-29T18:53:26.694Z,5.50
2019-03-29T18:55:58.029Z,5.00
2019-03-29T18:58:29.465Z,5.63
2019-03-29T19:01:00.676Z,6.47
2019-03-29T19:03:31.846Z,6.13
2019-03-29T19:06:03.108Z,6.10
2019-03-29T19:08:35.375Z,5.90
2019-03-29T19:11:06.467Z,5.77
2019-03-29T19:13:37.760Z,6.53
2019-03-29T19:16:09.016Z,6.10
2019-03-29T19:18:40.213Z,6.37
2019-03-29T19:21:11.482Z,7.17
2019-03-29T19:23:42.736Z,6.07
2019-03-29T19:26:13.903Z,6.33
2019-03-29T19:28:45.107Z,6.07
2019-03-29T19:31:16.239Z,5.47
2019-03-29T19:33:47.436Z,5.70
2019-03-29T19:36:18.808Z,6.27
2019-03-29T19:38:50.044Z,6.77
2019-03-29T19:41:21.255Z,5.67
2019-03-29T19:43:52.676Z,6.30
2019-03-29T19:46:24.372Z,6.53
2019-03-29T19:48:57.574Z,6.17
2019-03-29T19:51:29.048Z,7.23
2019-03-29T19:54:07.305Z,5.70
2019-03-29T19:56:34.157Z,6.53
2019-03-29T19:59:05.511Z,7.20
2019-03-29T20:01:37.143Z,6.70
2019-03-29T20:04:09.713Z,6.93
2019-03-29T20:06:41.058Z,8.10
2019-03-29T20:09:12.224Z,6.87
2019-03-29T20:11:43.883Z,6.63
2019-03-29T20:14:15.116Z,6.77
2019-03-29T20:16:47.394Z,7.00
2019-03-29T20:19:20.189Z,6.03
2019-03-29T20:21:52.525Z,6.40
2019-03-29T20:24:23.799Z,6.97
2019-03-29T20:27:02.706Z,8.30
2019-03-29T20:29:34.046Z,7.30
2019-03-29T20:32:05.274Z,6.57
2019-03-29T20:34:36.424Z,7.03
2019-03-29T20:37:09.059Z,7.73
2019-03-29T20:39:40.433Z,7.33
2019-03-29T20:42:11.599Z,7.47
2019-03-29T20:44:42.825Z,6.97
2019-03-29T20:47:14.074Z,7.17
2019-03-29T20:49:45.313Z,6.40
2019-03-29T20:52:16.619Z,7.10
2019-03-29T20:54:47.740Z,7.20
2019-03-29T20:57:19.006Z,6.90
2019-03-29T20:59:50.206Z,6.73
2019-03-29T21:02:22.599Z,7.43
2019-03-29T21:04:53.912Z,7.13
2019-03-29T21:07:25.129Z,9.20
2019-03-29T21:09:57.695Z,7.43
2019-03-29T21:12:28.951Z,7.90
2019-03-29T21:15:00.149Z,7.53
2019-03-29T21:17:31.701Z,8.20
2019-03-29T21:20:02.970Z,8.33
2019-03-29T21:22:34.264Z,8.57
2019-03-29T21:25:06.698Z,9.17
2019-03-29T21:27:38.107Z,9.73
2019-03-29T21:30:11.084Z,7.73
2019-03-29T21:32:42.327Z,8.00
2019-03-29T21:35:13.677Z,7.93
2019-03-29T21:37:44.926Z,9.20
2019-03-29T21:40:16.463Z,8.17
2019-03-29T21:42:48.484Z,8.23
2019-03-29T21:45:28.719Z,9.63
2019-03-29T21:48:04.685Z,7.93
2019-03-29T21:50:25.577Z,8.23
2019-03-29T21:52:56.683Z,7.93
2019-03-29T21:55:28.231Z,7.87
2019-03-29T21:57:59.725Z,8.27
2019-03-29T22:00:31.061Z,8.43
2019-03-29T22:03:02.345Z,8.03
2019-03-29T22:05:33.715Z,8.23
2019-03-29T22:08:05.247Z,8.37
2019-03-29T22:10:36.526Z,9.00
2019-03-29T22:13:07.796Z,9.97
2019-03-29T22:15:39.106Z,7.80
2019-03-29T22:18:10.402Z,8.43
2019-03-29T22:20:41.702Z,9.73
2019-03-29T22:23:14.026Z,8.80
2019-03-29T22:25:45.341Z,9.87
2019-03-29T22:28:16.994Z,9.43
2019-03-29T22:30:48.808Z,8.87
2019-03-29T22:33:20.137Z,7.63
2019-03-29T22:35:51.341Z,9.37
2019-03-29T22:38:22.622Z,8.30
2019-03-29T22:40:54.074Z,8.73
2019-03-29T22:43:25.410Z,8.33
2019-03-29T22:45:57.643Z,9.37
2019-03-29T22:48:29.058Z,8.97
2019-03-29T22:51:00.256Z,8.57
2019-03-29T22:53:31.529Z,8.67
2019-03-29T22:56:02.742Z,8.70
2019-03-29T22:58:33.883Z,9.20
2019-03-29T23:01:06.585Z,8.57
2019-03-29T23:03:37.836Z,8.93
2019-03-29T23:06:09.041Z,8.03
2019-03-29T23:08:40.515Z,8.43
2019-03-29T23:11:11.713Z,9.23
2019-03-29T23:13:42.986Z,8.63
2019-03-29T23:16:14.978Z,8.67
2019-03-29T23:18:46.183Z,8.83
2019-03-29T23:21:17.411Z,9.50
2019-03-29T23:23:48.497Z,9.13
2019-03-29T23:26:19.806Z,10.50
2019-03-29T23:28:51.092Z,8.43
2019-03-29T23:31:23.506Z,9.57
2019-03-29T23:33:54.746Z,9.00
2019-03-29T23:36:26.025Z,8.93
2019-03-29T23:38:57.295Z,9.43
2019-03-29T23:41:28.903Z,9.33
2019-03-29T23:44:00.070Z,8.17
2019-03-29T23:46:31.253Z,9.20
2019-03-29T23:49:02.331Z,8.83
2019-03-29T23:51:33.591Z,9.13
2019-03-29T23:54:04.747Z,8.37
2019-03-29T23:56:35.801Z,9.37
2019-03-29T23:59:07.406Z,9.57
